Time;durP1;ratioP1;P1;durP2;ratioP2;P2;SDS_P1;SDS_P2;PMS_P1;PMS_P2;Temp;Humidity;BMP_temperature;BMP_pressure;BME280_temperature;BME280_humidity;BME280_pressure;Samples;Min_cycle;Max_cycle;Signal;HPM_P1;HPM_P2
2022/12/02 20:09:08;;;;;;;14.65;11.60;;;13.00;83.10;;;;;;6176146;22;20027;-81
2022/12/02 20:11:34;;;;;;;17.45;11.80;;;13.00;83.40;;;;;;6246598;23;20309;-86
2022/12/02 20:13:59;;;;;;;15.45;11.25;;;13.10;83.60;;;;;;6246488;23;20005;-80
2022/12/02 20:16:25;;;;;;;14.35;10.15;;;13.10;83.80;;;;;;6246346;23;20004;-90
2022/12/02 20:18:51;;;;;;;18.60;12.07;;;13.00;83.90;;;;;;6245973;23;20000;-82
2022/12/02 20:21:16;;;;;;;15.68;10.68;;;13.00;84.10;;;;;;6218790;23;20436;-79
2022/12/02 20:23:42;;;;;;;15.88;10.77;;;13.00;84.40;;;;;;6245700;23;20439;-78
2022/12/02 20:26:08;;;;;;;15.25;10.68;;;13.00;84.40;;;;;;6245770;23;20023;-77
2022/12/02 20:28:34;;;;;;;14.25;10.60;;;13.00;84.60;;;;;;6218974;23;20012;-79
2022/12/02 20:31:00;;;;;;;16.77;11.80;;;13.00;85.00;;;;;;6218918;23;20079;-79
2022/12/02 20:33:25;;;;;;;15.38;10.75;;;13.00;85.10;;;;;;6218933;23;20092;-77
2022/12/02 20:35:51;;;;;;;16.00;11.70;;;13.00;85.30;;;;;;6245737;23;19996;-79
2022/12/02 20:38:17;;;;;;;16.30;10.80;;;12.90;85.50;;;;;;6218999;23;20467;-80
2022/12/02 20:40:42;;;;;;;13.70;9.98;;;12.90;85.60;;;;;;6246376;23;20000;-79
2022/12/02 20:43:09;;;;;;;13.43;9.80;;;12.90;85.60;;;;;;6219187;23;20008;-78
2022/12/02 20:45:34;;;;;;;12.82;8.70;;;12.90;86.00;;;;;;6245798;23;20068;-78
2022/12/02 20:48:00;;;;;;;12.55;8.93;;;12.90;86.20;;;;;;6219013;23;20482;-79
2022/12/02 20:50:26;;;;;;;10.27;7.90;;;12.80;86.20;;;;;;6246216;23;20156;-82
2022/12/02 20:52:52;;;;;;;11.98;7.90;;;12.80;86.60;;;;;;6245904;23;19999;-79
2022/12/02 20:55:17;;;;;;;10.20;6.70;;;12.80;86.30;;;;;;6218865;23;20008;-80
2022/12/02 20:57:43;;;;;;;11.13;6.70;;;12.90;86.30;;;;;;6218156;23;20012;-79
2022/12/02 21:00:10;;;;;;;10.05;5.78;;;12.90;86.30;;;;;;6218892;23;20008;-79
2022/12/02 21:02:36;;;;;;;11.40;5.47;;;12.90;85.90;;;;;;6245633;23;20336;-81
2022/12/02 21:05:01;;;;;;;7.43;5.28;;;12.90;85.80;;;;;;6245720;23;20008;-81
2022/12/02 21:07:27;;;;;;;8.48;5.50;;;12.90;85.70;;;;;;6246122;23;20000;-78
2022/12/02 21:09:53;;;;;;;11.27;5.55;;;12.90;85.40;;;;;;6218411;23;20387;-79
2022/12/02 21:12:18;;;;;;;8.73;5.20;;;12.90;85.30;;;;;;6218709;23;20012;-78
2022/12/02 21:14:44;;;;;;;7.25;4.72;;;12.90;85.10;;;;;;6218882;23;20016;-78
2022/12/02 21:17:10;;;;;;;7.25;4.82;;;12.90;84.80;;;;;;6245877;23;20157;-79
2022/12/02 21:19:36;;;;;;;8.30;4.88;;;12.90;84.70;;;;;;6245990;23;20007;-78
2022/12/02 21:22:01;;;;;;;8.60;5.80;;;12.90;84.60;;;;;;6248134;23;20000;-79
2022/12/02 21:24:27;;;;;;;8.45;5.43;;;12.90;84.60;;;;;;6221677;23;20027;-78
2022/12/02 21:26:53;;;;;;;8.93;5.47;;;12.90;84.60;;;;;;6219482;23;20510;-78
2022/12/02 21:29:19;;;;;;;10.30;5.72;;;12.90;84.50;;;;;;6246364;23;20004;-78
2022/12/02 21:31:44;;;;;;;10.05;6.13;;;12.90;84.60;;;;;;6245633;23;20005;-80
2022/12/02 21:34:10;;;;;;;9.48;6.10;;;12.90;84.60;;;;;;6245408;23;20296;-80
2022/12/02 21:36:36;;;;;;;8.75;5.72;;;12.90;84.50;;;;;;6217938;23;20013;-80
2022/12/02 21:39:02;;;;;;;8.15;5.50;;;12.90;84.80;;;;;;6218408;23;20008;-79
2022/12/02 21:41:28;;;;;;;8.38;4.80;;;13.00;84.60;;;;;;6218176;23;20004;-82
2022/12/02 21:43:53;;;;;;;6.93;4.25;;;13.00;84.20;;;;;;6218499;23;20027;-78
2022/12/02 21:46:19;;;;;;;5.28;3.50;;;13.00;84.10;;;;;;6218521;23;20008;-78
2022/12/02 21:48:45;;;;;;;7.80;4.15;;;13.00;84.00;;;;;;6218614;23;20008;-79
2022/12/02 21:51:11;;;;;;;6.25;3.80;;;13.00;83.80;;;;;;6245315;23;20381;-80
2022/12/02 21:53:36;;;;;;;7.63;3.97;;;13.10;84.10;;;;;;6245343;23;20416;-79
2022/12/02 21:56:05;;;;;;;7.05;3.58;;;13.10;83.80;;;;;;6218720;23;20008;-80
2022/12/02 21:58:31;;;;;;;6.68;4.22;;;13.10;83.60;;;;;;6217975;23;20015;-78
2022/12/02 22:03:42;;;;;;;6.53;4.22;;;13.10;83.60;;;;;;6245335;23;20069;-79
2022/12/02 22:06:08;;;;;;;8.25;4.90;;;13.10;83.60;;;;;;6245174;23;20004;-78
2022/12/02 22:08:34;;;;;;;7.95;4.68;;;13.10;83.80;;;;;;6245023;23;20016;-77
2022/12/02 22:10:59;;;;;;;7.45;5.00;;;13.10;83.80;;;;;;6218419;23;20004;-79
2022/12/02 22:13:25;;;;;;;10.18;5.07;;;13.10;84.00;;;;;;6245195;23;20006;-78
2022/12/02 22:15:51;;;;;;;7.60;4.45;;;13.10;84.20;;;;;;6218386;23;20028;-76
2022/12/02 22:18:17;;;;;;;6.82;4.03;;;13.10;84.60;;;;;;6217767;23;20440;-79
2022/12/02 22:20:42;;;;;;;7.28;4.55;;;13.10;84.50;;;;;;6245087;23;20004;-79
2022/12/02 22:23:08;;;;;;;8.07;4.88;;;13.00;84.40;;;;;;6218420;23;20008;-80
2022/12/02 22:25:33;;;;;;;10.55;4.85;;;13.00;84.70;;;;;;6218482;23;20023;-79
2022/12/02 22:27:59;;;;;;;6.55;4.43;;;13.00;84.90;;;;;;6218639;23;20004;-80
2022/12/02 22:30:25;;;;;;;6.32;4.18;;;13.00;85.10;;;;;;6218585;23;20012;-79
2022/12/02 22:32:53;;;;;;;6.82;4.50;;;13.00;85.10;;;;;;6219816;23;20397;-79
2022/12/02 22:35:19;;;;;;;8.75;4.70;;;12.90;85.00;;;;;;6245530;23;20001;-77
2022/12/02 22:37:44;;;;;;;7.10;4.32;;;13.00;85.70;;;;;;6221853;23;20126;-87
2022/12/02 22:40:11;;;;;;;6.60;4.10;;;12.90;85.70;;;;;;6248600;23;19996;-87
2022/12/02 22:42:37;;;;;;;5.55;3.70;;;12.90;85.50;;;;;;6224785;23;20100;-87
2022/12/02 22:45:03;;;;;;;6.18;3.95;;;12.90;85.90;;;;;;6248094;23;20332;-88
2022/12/02 22:47:29;;;;;;;6.47;4.38;;;12.90;86.00;;;;;;6249443;23;19997;-87
2022/12/02 22:49:54;;;;;;;6.28;4.00;;;12.90;86.30;;;;;;6223633;23;20015;-88
2022/12/02 22:52:20;;;;;;;5.88;3.72;;;12.90;86.50;;;;;;6246843;23;20401;-89
2022/12/02 22:54:46;;;;;;;7.63;4.60;;;12.80;86.20;;;;;;6252022;23;20000;-87
2022/12/02 22:57:11;;;;;;;7.32;4.38;;;12.80;86.70;;;;;;6229771;23;20281;-88
2022/12/02 22:59:37;;;;;;;8.63;4.85;;;12.80;86.70;;;;;;6220676;23;20095;-88
2022/12/02 23:02:03;;;;;;;7.50;4.75;;;12.80;86.60;;;;;;6252998;23;20075;-87
2022/12/02 23:04:28;;;;;;;8.20;5.25;;;12.70;87.10;;;;;;6253825;23;20008;-87
2022/12/02 23:06:56;;;;;;;8.18;5.75;;;12.80;87.40;;;;;;6266367;23;20030;-88
2022/12/02 23:09:22;;;;;;;8.40;5.45;;;12.70;87.30;;;;;;6241052;23;20035;-87
2022/12/02 23:11:48;;;;;;;8.45;5.38;;;12.70;87.60;;;;;;6267377;23;20008;-88
2022/12/02 23:14:14;;;;;;;8.05;5.38;;;12.70;87.80;;;;;;6240930;23;20084;-85
2022/12/02 23:16:40;;;;;;;7.05;4.95;;;12.70;87.90;;;;;;6225103;23;20008;-87
2022/12/02 23:19:05;;;;;;;8.90;5.25;;;12.60;88.00;;;;;;6227235;23;20016;-88
2022/12/02 23:21:31;;;;;;;9.38;5.47;;;12.60;88.20;;;;;;6221219;23;20011;-88
2022/12/02 23:23:57;;;;;;;8.95;5.40;;;12.60;88.30;;;;;;6243103;23;20016;-86
2022/12/02 23:26:23;;;;;;;8.45;5.05;;;12.70;88.20;;;;;;6269919;23;19995;-86
2022/12/02 23:28:48;;;;;;;7.22;5.25;;;12.70;88.20;;;;;;6239175;23;20016;-87
2022/12/02 23:31:14;;;;;;;8.10;5.15;;;12.70;88.20;;;;;;6222482;23;20012;-88
2022/12/02 23:33:40;;;;;;;9.85;5.13;;;12.70;88.50;;;;;;6221973;23;20096;-88
2022/12/02 23:36:06;;;;;;;7.53;5.13;;;12.70;88.50;;;;;;6223144;23;20012;-88
2022/12/02 23:38:31;;;;;;;8.00;4.65;;;12.70;88.30;;;;;;6249944;23;20113;-87
2022/12/02 23:40:57;;;;;;;8.25;5.32;;;12.70;88.80;;;;;;6220615;23;20440;-88
2022/12/02 23:43:23;;;;;;;7.38;5.55;;;12.60;89.00;;;;;;6247735;23;20079;-88
2022/12/02 23:45:48;;;;;;;8.77;5.32;;;12.60;89.30;;;;;;6220996;23;20034;-87
2022/12/02 23:48:14;;;;;;;10.75;5.55;;;12.60;89.40;;;;;;6221504;23;20000;-88
2022/12/02 23:50:40;;;;;;;9.70;5.53;;;12.60;89.50;;;;;;6249844;23;20083;-87
2022/12/02 23:53:05;;;;;;;8.43;4.93;;;12.60;89.70;;;;;;6248696;23;20003;-88
2022/12/02 23:55:31;;;;;;;7.50;4.43;;;12.60;89.80;;;;;;6222797;23;20416;-87
2022/12/02 23:57:57;;;;;;;7.88;4.28;;;12.60;89.70;;;;;;6220594;23;20012;-87
